Aeroporto :
LOGIN :

Iscrizione | Disclaimer

   EN    FR    IT 

 










Sommario :    VFR   VFR Marginale   IFR   IFR Intensivo   IFR Molto Intensivo
Visibilità : 
Base nubi : 
>= 8 km
>= 3000ft
5 / 8 km
1000 / 3000 ft
1500m / 5 km
500 / 1000 ft
800 / 1500m
200 / 500 ft
< 800m
< 200 ft
Simboli :   Temporali  Nebbia  Neve Forte  Precipitazioni Forti  Vento > 20 kt
SIGMETs :   Varie  Temporali  Ghiacco  Turbolenza  Onda orograficha  Ceneri Vulcaniche






- Altitudine del aeroporto : 1768 ft


LEHC - Huesca Pirineos

ULTIMO METAR :
  • 240200Z AUTO 29008KT CAVOK 08/06 Q1023

METARs OBSOLETI :
  • 240130Z AUTO 29007KT CAVOK 08/06 Q1023
  • 240100Z AUTO 30008KT CAVOK 08/06 Q1023
  • 240030Z AUTO 28008KT CAVOK 08/06 Q1023
  • 240000Z AUTO 27008KT CAVOK 08/06 Q1023
  • 232330Z AUTO 26009KT CAVOK 09/06 Q1023

TAF TAF LEHC
Valido dal 23 a 15 ore il 24 a 15 ore UTC


231400Z 2315/2415 30010KT 9999 SCT035 TX18/2413Z TN07/2405Z
PROB30
TEMPO 2400/2407 VRB04KT 4000 BR BKN010



MetMap, La meteo Aeronautica in un colpo d'occhio ! - Copyright ORBIFLY Dicembre 2007 - Disclaimer

ORBIFLY MET'MAP TEAM :

Programmazione e sviluppo : Alexandra Zaïnal
Concezione : Baudouin d'Aumeries
Aiuto per la programmazione : Marc-Olivier Méhu
Supporto tecnico e logistico : Manuel Goepfert
Aiuto per la traduzione : Arnaldo La Scala

Contatto : metmap@orbifly.com




FONTI E CREDITI :

   NOAA